createdAt,value
2022-09-07T00:02:06.819Z,6.02
2022-09-07T00:04:34.266Z,5.95
2022-09-07T00:07:01.204Z,5.90
2022-09-07T00:09:29.132Z,5.86
2022-09-07T00:11:56.159Z,5.82
2022-09-07T00:14:23.046Z,5.77
2022-09-07T00:16:49.945Z,5.68
2022-09-07T00:19:17.056Z,5.59
2022-09-07T00:21:44.012Z,5.55
2022-09-07T00:24:10.962Z,5.54
2022-09-07T00:26:38.262Z,5.54
2022-09-07T00:29:06.422Z,5.52
2022-09-07T00:31:33.819Z,5.51
2022-09-07T00:34:02.344Z,5.45
2022-09-07T00:36:29.849Z,5.35
2022-09-07T00:38:56.839Z,5.32
2022-09-07T00:41:24.487Z,5.30
2022-09-07T00:43:56.061Z,5.28
2022-09-07T00:46:24.670Z,5.27
2022-09-07T00:49:09.056Z,5.25
2022-09-07T00:52:03.523Z,5.21
2022-09-07T00:54:39.174Z,5.16
2022-09-07T00:57:06.959Z,5.12
2022-09-07T00:59:39.465Z,5.08
2022-09-07T01:02:06.692Z,5.02
2022-09-07T01:04:35.095Z,5.01
2022-09-07T01:07:03.293Z,5.00
2022-09-07T01:09:31.047Z,4.97
2022-09-07T01:12:00.897Z,4.92
2022-09-07T01:14:34.911Z,4.89
2022-09-07T01:17:19.181Z,4.84
2022-09-07T01:20:15.430Z,4.82
2022-09-07T01:22:56.113Z,4.76
2022-09-07T01:25:50.728Z,4.71
2022-09-07T01:28:17.571Z,4.70
2022-09-07T01:30:56.101Z,4.67
2022-09-07T01:33:45.098Z,4.66
2022-09-07T01:36:18.962Z,4.63
2022-09-07T01:38:53.511Z,4.61
2022-09-07T01:41:39.182Z,4.56
2022-09-07T01:44:06.032Z,4.55
2022-09-07T01:46:42.375Z,4.53
2022-09-07T01:49:18.040Z,4.55
2022-09-07T01:51:48.568Z,4.56
2022-09-07T01:54:22.551Z,4.55
2022-09-07T01:56:56.300Z,4.57
2022-09-07T01:59:38.614Z,4.59
2022-09-07T02:02:41.271Z,4.64
2022-09-07T02:05:14.207Z,4.76
2022-09-07T02:08:01.346Z,4.85
2022-09-07T02:10:41.824Z,4.91
2022-09-07T02:13:35.204Z,4.98
2022-09-07T02:16:16.556Z,5.03
2022-09-07T02:18:46.933Z,5.04
2022-09-07T02:21:19.982Z,5.07
2022-09-07T02:23:52.019Z,5.11
2022-09-07T02:26:22.492Z,5.17
2022-09-07T02:28:50.721Z,5.24
2022-09-07T02:31:18.258Z,5.29
2022-09-07T02:33:45.339Z,5.33
2022-09-07T02:36:15.512Z,5.36
2022-09-07T02:38:42.442Z,5.37
2022-09-07T02:41:28.258Z,5.35
2022-09-07T02:43:55.591Z,5.37
2022-09-07T02:46:36.547Z,5.41
2022-09-07T02:49:32.272Z,5.43
2022-09-07T02:52:05.044Z,5.45
2022-09-07T02:54:44.189Z,5.47
2022-09-07T02:57:38.931Z,5.49
2022-09-07T03:00:13.622Z,5.51
2022-09-07T03:02:55.717Z,5.51
2022-09-07T03:05:44.637Z,5.49
2022-09-07T03:08:20.532Z,5.42
2022-09-07T03:10:49.043Z,5.37
2022-09-07T03:13:34.453Z,5.33
2022-09-07T03:16:01.873Z,5.32
2022-09-07T03:18:29.373Z,5.28
2022-09-07T03:20:56.449Z,5.25
2022-09-07T03:23:23.886Z,5.23
2022-09-07T03:25:51.178Z,5.19
2022-09-07T03:28:18.212Z,5.19
2022-09-07T03:30:47.588Z,5.14
2022-09-07T03:33:17.732Z,5.02
2022-09-07T03:35:46.000Z,4.97
2022-09-07T03:38:13.398Z,4.91
2022-09-07T03:40:40.426Z,4.90
2022-09-07T03:43:07.305Z,4.92
2022-09-07T03:45:34.541Z,4.94
2022-09-07T03:48:01.563Z,5.03
2022-09-07T03:50:29.262Z,5.10
2022-09-07T03:52:56.470Z,5.10
2022-09-07T03:55:23.439Z,5.11
2022-09-07T03:57:50.280Z,5.10
2022-09-07T04:00:17.510Z,5.06
2022-09-07T04:02:44.371Z,5.08
2022-09-07T04:05:11.717Z,5.09
2022-09-07T04:07:38.893Z,5.10
2022-09-07T04:10:06.061Z,5.11
2022-09-07T04:12:32.921Z,5.14
2022-09-07T04:15:00.039Z,5.17
2022-09-07T04:17:26.917Z,5.21
2022-09-07T04:19:53.739Z,5.26
2022-09-07T04:22:20.831Z,5.30
2022-09-07T04:24:47.719Z,5.37
2022-09-07T04:27:14.551Z,5.54
2022-09-07T04:29:41.624Z,5.72
2022-09-07T04:32:12.362Z,5.92
2022-09-07T04:34:42.207Z,6.08
2022-09-07T04:37:09.061Z,6.22
2022-09-07T04:39:35.944Z,6.36
2022-09-07T04:42:03.111Z,6.48
2022-09-07T04:44:30.004Z,6.55
2022-09-07T04:46:56.887Z,6.61
2022-09-07T04:49:24.047Z,6.68
2022-09-07T04:51:52.139Z,6.74
2022-09-07T04:54:19.036Z,6.82
2022-09-07T04:56:46.165Z,6.92
2022-09-07T04:59:13.042Z,7.21
2022-09-07T05:01:40.173Z,7.83
2022-09-07T05:04:07.312Z,8.39
2022-09-07T05:06:34.697Z,8.88
2022-09-07T05:09:01.584Z,9.66
2022-09-07T05:11:30.022Z,10.44
2022-09-07T05:14:01.859Z,10.85
2022-09-07T05:16:29.760Z,10.99
2022-09-07T05:18:59.809Z,10.97
2022-09-07T05:21:29.863Z,10.88
2022-09-07T05:23:58.279Z,10.72
2022-09-07T05:26:28.375Z,10.49
2022-09-07T05:31:43.036Z,9.96
2022-09-07T05:36:57.877Z,9.66
2022-09-07T05:39:24.900Z,9.66
2022-09-07T05:41:51.803Z,9.73
2022-09-07T05:47:06.197Z,9.91
2022-09-07T05:49:33.420Z,10.05
2022-09-07T05:52:00.390Z,10.26
2022-09-07T05:54:27.453Z,10.65
2022-09-07T05:56:54.509Z,11.14
2022-09-07T05:59:21.354Z,11.60
2022-09-07T06:01:48.289Z,11.96
2022-09-07T06:04:15.383Z,12.35
2022-09-07T06:06:47.841Z,12.83
2022-09-07T06:09:30.349Z,13.81
2022-09-07T06:11:57.459Z,14.57
2022-09-07T06:14:25.085Z,15.11
2022-09-07T06:16:52.205Z,15.87
2022-09-07T06:19:19.128Z,16.31
2022-09-07T06:21:46.002Z,16.35
2022-09-07T06:24:13.212Z,16.21
2022-09-07T06:26:40.066Z,15.94
2022-09-07T06:29:06.983Z,15.69
2022-09-07T06:31:34.567Z,15.45
2022-09-07T06:34:01.671Z,15.28
2022-09-07T06:36:29.168Z,15.25
2022-09-07T06:38:59.148Z,15.43
2022-09-07T06:44:16.081Z,15.98
2022-09-07T06:49:30.280Z,16.24
2022-09-07T06:51:57.200Z,16.34
2022-09-07T06:57:11.182Z,16.78
2022-09-07T06:59:38.918Z,17.19
2022-09-07T07:02:06.525Z,17.87
2022-09-07T07:04:39.394Z,18.35
2022-09-07T07:07:09.458Z,18.61
2022-09-07T07:09:36.737Z,18.74
2022-09-07T07:12:04.010Z,18.93
2022-09-07T07:14:33.774Z,19.19
2022-09-07T07:17:02.847Z,19.00
2022-09-07T07:19:29.743Z,18.77
2022-09-07T07:24:43.713Z,18.49
2022-09-07T07:27:10.577Z,18.50
2022-09-07T07:29:37.431Z,18.89
2022-09-07T07:32:04.584Z,19.12
2022-09-07T07:34:31.566Z,19.79
2022-09-07T07:36:58.513Z,20.75
2022-09-07T07:42:12.591Z,23.76
2022-09-07T07:44:39.676Z,24.89
2022-09-07T07:47:06.693Z,26.07
2022-09-07T07:49:33.868Z,27.06
2022-09-07T07:54:48.247Z,27.41
2022-09-07T07:57:17.009Z,27.54
2022-09-07T07:59:43.869Z,27.30
2022-09-07T08:02:15.867Z,27.49
2022-09-07T08:04:43.234Z,27.37
2022-09-07T08:07:12.175Z,27.33
2022-09-07T08:09:42.285Z,27.11
2022-09-07T08:12:12.352Z,26.36
2022-09-07T08:14:43.443Z,25.78
2022-09-07T08:17:12.317Z,25.37
2022-09-07T08:19:39.771Z,25.06
2022-09-07T08:22:07.967Z,25.48
2022-09-07T08:24:35.749Z,26.42
2022-09-07T08:27:02.873Z,27.35
2022-09-07T08:29:33.526Z,28.27
2022-09-07T08:32:06.865Z,28.69
2022-09-07T08:34:36.281Z,28.64
2022-09-07T08:37:04.081Z,28.12
2022-09-07T08:39:31.277Z,27.78
2022-09-07T08:42:19.173Z,27.43
2022-09-07T08:44:54.455Z,27.14
2022-09-07T08:47:27.986Z,27.11
2022-09-07T08:50:28.950Z,27.02
2022-09-07T08:53:08.461Z,27.07
2022-09-07T08:55:53.158Z,27.68
2022-09-07T08:58:48.123Z,28.23
2022-09-07T09:01:33.758Z,28.75
2022-09-07T09:04:18.005Z,29.26
2022-09-07T09:07:40.041Z,28.30
2022-09-07T09:10:13.881Z,27.71
2022-09-07T09:12:58.454Z,27.02
2022-09-07T09:15:32.323Z,26.40
2022-09-07T09:18:27.351Z,25.73
2022-09-07T09:20:56.881Z,25.54
2022-09-07T09:23:27.259Z,25.92
2022-09-07T09:26:01.392Z,26.37
2022-09-07T09:28:31.747Z,26.67
2022-09-07T09:30:59.475Z,26.00
2022-09-07T09:33:29.127Z,25.36
2022-09-07T09:36:00.231Z,25.00
2022-09-07T09:38:40.801Z,24.79
2022-09-07T09:41:10.599Z,25.09
2022-09-07T09:43:52.280Z,25.22
2022-09-07T09:46:27.412Z,26.00
2022-09-07T09:49:00.899Z,26.79
2022-09-07T09:54:53.894Z,28.23
2022-09-07T09:59:04.864Z,28.53
2022-09-07T10:00:35.343Z,28.98
2022-09-07T10:06:04.279Z,30.14
2022-09-07T10:08:33.428Z,30.72
2022-09-07T10:11:04.669Z,30.82
2022-09-07T10:13:41.983Z,30.61
2022-09-07T10:16:11.659Z,30.28
2022-09-07T10:18:41.898Z,30.02
2022-09-07T10:21:34.914Z,29.88
2022-09-07T10:24:04.945Z,29.48
2022-09-07T10:26:34.623Z,29.36
2022-09-07T10:29:16.806Z,29.32
2022-09-07T10:31:56.976Z,29.86
2022-09-07T10:34:38.978Z,30.83
2022-09-07T10:37:11.117Z,30.51
2022-09-07T10:39:44.012Z,30.14
2022-09-07T10:42:31.778Z,30.35
2022-09-07T10:44:58.516Z,30.26
2022-09-07T10:47:46.893Z,29.74
2022-09-07T10:50:42.898Z,29.48
2022-09-07T10:53:41.869Z,29.93
2022-09-07T10:56:11.993Z,30.35
2022-09-07T10:59:03.585Z,31.01
2022-09-07T11:01:42.795Z,31.38
2022-09-07T11:04:12.904Z,31.92
2022-09-07T11:06:41.851Z,31.66
2022-09-07T11:09:18.525Z,30.76
2022-09-07T11:12:09.938Z,30.14
2022-09-07T11:15:07.076Z,29.95
2022-09-07T11:17:41.678Z,29.94
2022-09-07T11:20:35.697Z,30.49
2022-09-07T11:23:11.826Z,30.93
2022-09-07T11:25:59.064Z,31.37
2022-09-07T11:31:45.180Z,32.62
2022-09-07T11:34:24.723Z,32.97
2022-09-07T11:37:09.453Z,33.04
2022-09-07T11:39:45.062Z,33.15
2022-09-07T11:45:29.714Z,33.04
2022-09-07T11:48:04.885Z,32.48
2022-09-07T11:50:39.480Z,32.49
2022-09-07T11:53:18.322Z,32.64
2022-09-07T11:55:49.901Z,32.85
2022-09-07T11:58:37.960Z,33.26
2022-09-07T12:01:48.197Z,33.81
2022-09-07T12:04:45.844Z,33.87
2022-09-07T12:07:38.082Z,32.98
2022-09-07T12:10:26.697Z,32.24
2022-09-07T12:13:24.375Z,31.68
2022-09-07T12:16:15.458Z,31.47
2022-09-07T12:19:13.707Z,31.06
2022-09-07T12:21:43.932Z,31.22
2022-09-07T12:24:35.696Z,30.94
2022-09-07T12:27:10.547Z,31.03
2022-09-07T12:29:45.078Z,30.86
2022-09-07T12:35:00.835Z,31.46
2022-09-07T12:37:27.707Z,31.28
2022-09-07T12:40:28.715Z,30.73
2022-09-07T12:43:14.158Z,30.53
2022-09-07T12:45:40.972Z,30.35
2022-09-07T12:48:16.978Z,29.93
2022-09-07T12:51:00.507Z,29.45
2022-09-07T12:53:46.020Z,29.35
2022-09-07T12:56:34.511Z,29.05
2022-09-07T12:59:19.520Z,28.73
2022-09-07T13:02:28.506Z,29.07
2022-09-07T13:05:15.726Z,29.21
2022-09-07T13:08:01.721Z,29.57
2022-09-07T13:10:37.083Z,29.90
2022-09-07T13:13:07.031Z,30.02
2022-09-07T13:15:40.689Z,29.77
2022-09-07T13:18:34.517Z,29.20
2022-09-07T13:21:07.194Z,28.59
2022-09-07T13:23:39.093Z,28.10
2022-09-07T13:26:09.524Z,27.64
2022-09-07T13:28:40.165Z,27.42
2022-09-07T13:31:15.987Z,27.24
2022-09-07T13:33:51.277Z,26.98
2022-09-07T13:36:37.615Z,26.79
2022-09-07T13:39:12.799Z,26.72
2022-09-07T13:42:00.315Z,26.71
2022-09-07T13:44:33.602Z,26.71
2022-09-07T13:47:25.711Z,26.60
2022-09-07T13:50:05.558Z,26.41
2022-09-07T13:52:42.341Z,26.07
2022-09-07T13:55:34.460Z,25.95
2022-09-07T13:58:19.820Z,25.79
2022-09-07T14:00:54.472Z,25.55
2022-09-07T14:03:24.096Z,25.38
2022-09-07T14:06:27.414Z,25.28
2022-09-07T14:08:58.064Z,25.25
2022-09-07T14:11:29.554Z,25.27
2022-09-07T14:14:17.989Z,25.34
2022-09-07T14:17:00.317Z,25.22
2022-09-07T14:19:42.887Z,24.90
2022-09-07T14:22:16.643Z,24.77
2022-09-07T14:24:51.587Z,24.71
2022-09-07T14:27:32.877Z,24.69
2022-09-07T14:30:28.049Z,24.62
2022-09-07T14:32:58.224Z,24.54
2022-09-07T14:35:28.494Z,24.56
2022-09-07T14:38:03.397Z,24.60
2022-09-07T14:40:30.648Z,24.66
2022-09-07T14:42:58.253Z,24.63
2022-09-07T14:45:39.735Z,24.50
2022-09-07T14:48:13.102Z,24.51
2022-09-07T14:50:46.830Z,24.52
2022-09-07T14:53:34.634Z,24.55
2022-09-07T14:56:08.321Z,24.57
2022-09-07T14:58:35.455Z,24.50
2022-09-07T15:04:01.987Z,24.18
2022-09-07T15:09:35.004Z,23.67
2022-09-07T15:12:27.187Z,23.50
2022-09-07T15:15:37.641Z,23.27
2022-09-07T15:18:42.422Z,23.10
2022-09-07T15:21:09.604Z,23.04
2022-09-07T15:23:36.362Z,23.01
2022-09-07T15:26:03.616Z,23.01
2022-09-07T15:34:15.996Z,22.96
2022-09-07T15:36:53.591Z,22.96
2022-09-07T15:39:25.049Z,22.95
2022-09-07T15:41:52.344Z,22.96
2022-09-07T15:44:24.353Z,22.95
2022-09-07T15:49:39.550Z,22.96
2022-09-07T15:52:09.456Z,22.94
2022-09-07T15:54:39.613Z,22.90
2022-09-07T15:59:54.005Z,22.75
2022-09-07T16:05:08.813Z,22.58
2022-09-07T16:10:22.860Z,22.40
2022-09-07T16:13:10.901Z,22.33
2022-09-07T16:15:45.117Z,22.25
2022-09-07T16:18:16.753Z,22.18
2022-09-07T16:20:45.060Z,22.11
2022-09-07T16:23:15.316Z,22.03
2022-09-07T16:25:54.181Z,21.83
2022-09-07T16:28:21.130Z,21.56
2022-09-07T16:30:48.136Z,21.34
2022-09-07T16:33:15.339Z,21.18
2022-09-07T16:35:42.445Z,21.03
2022-09-07T16:40:56.579Z,20.61
2022-09-07T16:43:23.331Z,20.43
2022-09-07T16:46:03.063Z,20.12
2022-09-07T16:48:35.363Z,19.85
2022-09-07T16:51:03.572Z,19.62
2022-09-07T16:53:32.622Z,19.29
2022-09-07T16:56:10.944Z,18.93
2022-09-07T16:58:45.810Z,18.68
2022-09-07T17:01:18.554Z,18.43
2022-09-07T17:03:46.139Z,18.16
2022-09-07T17:06:14.293Z,17.91
2022-09-07T17:08:42.346Z,17.58
2022-09-07T17:11:11.807Z,17.35
2022-09-07T17:13:40.772Z,17.14
2022-09-07T17:16:10.670Z,16.96
2022-09-07T17:21:28.366Z,16.58
2022-09-07T17:23:55.946Z,16.36
2022-09-07T17:26:26.709Z,16.18
2022-09-07T17:29:00.405Z,15.94
2022-09-07T17:34:17.601Z,15.54
2022-09-07T17:36:44.592Z,15.45
2022-09-07T17:39:16.454Z,15.31
2022-09-07T17:41:44.845Z,15.17
2022-09-07T17:44:12.021Z,15.00
2022-09-07T17:46:38.891Z,14.86
2022-09-07T17:49:10.372Z,14.78
2022-09-07T17:51:37.320Z,14.68
2022-09-07T17:54:10.880Z,14.55
2022-09-07T17:56:39.464Z,14.39
2022-09-07T18:01:54.219Z,14.13
2022-09-07T18:04:22.080Z,14.00
2022-09-07T18:06:49.011Z,13.89
2022-09-07T18:09:16.293Z,13.85
2022-09-07T18:11:45.989Z,13.78
2022-09-07T18:14:14.846Z,13.68
2022-09-07T18:16:43.680Z,13.58
2022-09-07T18:19:11.808Z,13.48
2022-09-07T18:21:40.911Z,13.40
2022-09-07T18:24:20.248Z,13.31
2022-09-07T18:26:50.595Z,13.26
2022-09-07T18:29:33.047Z,13.21
2022-09-07T18:32:08.190Z,13.11
2022-09-07T18:34:37.307Z,13.00
2022-09-07T18:37:04.734Z,12.94
2022-09-07T18:39:32.385Z,12.86
2022-09-07T18:41:59.489Z,12.81
2022-09-07T18:47:21.663Z,12.68
2022-09-07T18:49:50.174Z,12.64
2022-09-07T18:55:07.087Z,12.50
2022-09-07T18:57:35.028Z,12.47
2022-09-07T19:00:05.062Z,12.45
2022-09-07T19:02:31.916Z,12.44
2022-09-07T19:07:45.743Z,12.44
2022-09-07T19:10:14.491Z,12.44
2022-09-07T19:12:45.505Z,12.43
2022-09-07T19:15:13.344Z,12.43
2022-09-07T19:17:40.426Z,12.43
2022-09-07T19:20:07.856Z,12.41
2022-09-07T19:22:34.920Z,12.37
2022-09-07T19:25:01.699Z,12.39
2022-09-07T19:27:29.251Z,12.42
2022-09-07T19:29:56.254Z,12.44
2022-09-07T19:32:23.188Z,12.47
2022-09-07T19:34:54.538Z,12.47
2022-09-07T19:37:26.006Z,12.43
2022-09-07T19:39:55.266Z,12.35
2022-09-07T19:42:23.700Z,12.24
2022-09-07T19:44:51.158Z,12.21
2022-09-07T19:47:18.786Z,12.14
2022-09-07T19:49:45.924Z,12.12
2022-09-07T19:52:12.839Z,12.06
2022-09-07T19:54:40.540Z,12.03
2022-09-07T19:57:07.489Z,11.98
2022-09-07T19:59:34.248Z,11.92
2022-09-07T20:02:01.103Z,11.84
2022-09-07T20:04:28.325Z,11.77
2022-09-07T20:06:55.226Z,11.72
2022-09-07T20:09:22.028Z,11.69
2022-09-07T20:11:49.450Z,11.65
2022-09-07T20:14:16.907Z,11.63
2022-09-07T20:16:44.119Z,11.64
2022-09-07T20:19:14.937Z,11.65
2022-09-07T20:21:42.909Z,11.64
2022-09-07T20:24:14.685Z,11.67
2022-09-07T20:26:41.710Z,11.71
2022-09-07T20:29:26.926Z,11.74
2022-09-07T20:31:57.074Z,11.79
2022-09-07T20:34:24.021Z,11.80
2022-09-07T20:36:51.327Z,11.82
2022-09-07T20:39:19.319Z,11.83
2022-09-07T20:41:46.539Z,11.78
2022-09-07T20:44:14.297Z,11.76
2022-09-07T20:46:41.509Z,11.73
2022-09-07T20:49:08.519Z,11.70
2022-09-07T20:51:35.407Z,11.68
2022-09-07T20:54:02.456Z,11.60
2022-09-07T20:56:29.381Z,11.56
2022-09-07T20:59:01.151Z,11.49
2022-09-07T21:01:29.795Z,11.42
2022-09-07T21:03:58.500Z,11.30
2022-09-07T21:06:27.332Z,11.19
2022-09-07T21:08:55.271Z,11.13
2022-09-07T21:11:25.610Z,11.06
2022-09-07T21:14:17.686Z,10.95
2022-09-07T21:16:44.623Z,10.96
2022-09-07T21:19:11.443Z,10.93
2022-09-07T21:21:41.018Z,10.88
2022-09-07T21:24:22.175Z,10.82
2022-09-07T21:26:50.360Z,10.80
2022-09-07T21:29:18.811Z,10.77
2022-09-07T21:31:46.144Z,10.74
2022-09-07T21:34:13.735Z,10.69
2022-09-07T21:36:40.786Z,10.65
2022-09-07T21:39:12.467Z,10.62
2022-09-07T21:41:42.114Z,10.54
2022-09-07T21:44:12.718Z,10.53
2022-09-07T21:46:39.908Z,10.45
2022-09-07T21:49:06.978Z,10.36
2022-09-07T21:51:33.874Z,10.28
2022-09-07T21:54:01.464Z,10.26
2022-09-07T21:56:31.191Z,10.25
2022-09-07T21:58:59.996Z,10.24
2022-09-07T22:01:28.698Z,10.20
2022-09-07T22:03:58.606Z,10.15
2022-09-07T22:06:27.688Z,10.12
2022-09-07T22:08:54.845Z,10.07
2022-09-07T22:11:23.460Z,10.04
2022-09-07T22:13:55.585Z,9.95
2022-09-07T22:16:23.686Z,9.92
2022-09-07T22:18:50.744Z,9.89
2022-09-07T22:21:20.428Z,9.84
2022-09-07T22:23:50.438Z,9.81
2022-09-07T22:26:22.331Z,9.76
2022-09-07T22:28:49.539Z,9.79
2022-09-07T22:31:19.255Z,9.78
2022-09-07T22:33:47.925Z,9.76
2022-09-07T22:36:19.435Z,9.72
2022-09-07T22:38:48.746Z,9.70
2022-09-07T22:41:16.975Z,9.61
2022-09-07T22:43:44.913Z,9.59
2022-09-07T22:46:12.834Z,9.58
2022-09-07T22:48:40.715Z,9.53
2022-09-07T22:51:08.878Z,9.51
2022-09-07T22:53:37.664Z,9.50
2022-09-07T22:56:10.599Z,9.50
2022-09-07T22:58:38.352Z,9.46
2022-09-07T23:01:06.140Z,9.44
2022-09-07T23:03:34.811Z,9.39
2022-09-07T23:06:02.786Z,9.34
2022-09-07T23:08:30.050Z,9.34
2022-09-07T23:11:04.211Z,9.33
2022-09-07T23:13:33.014Z,9.32
2022-09-07T23:16:07.155Z,9.29
2022-09-07T23:18:34.857Z,9.23
2022-09-07T23:21:02.249Z,9.18
2022-09-07T23:23:29.705Z,9.13
2022-09-07T23:25:56.971Z,9.07
2022-09-07T23:28:23.780Z,9.05
2022-09-07T23:30:51.305Z,9.04
2022-09-07T23:33:18.660Z,9.02
2022-09-07T23:35:59.881Z,8.99
2022-09-07T23:38:27.876Z,8.94
2022-09-07T23:40:55.872Z,8.91
2022-09-07T23:43:23.379Z,8.92
2022-09-07T23:45:50.828Z,8.89
2022-09-07T23:48:17.653Z,8.87
2022-09-07T23:50:45.595Z,8.83
2022-09-07T23:53:13.005Z,8.80
2022-09-07T23:55:40.605Z,8.79
2022-09-07T23:58:08.838Z,8.78
